Sichem Montreal — ZCEO6 — position and weather

sailwx.info

Track history (hours):
 
Tides and Currents Weather Stations Pressure Air Temp Water Temp Dewpoint Dewpoint Depression Visibility Wind Speed Wind Dir Waves Ship Positions

Sichem Montreal

Last reported at 2017-Nov-28 17:42 UTC. Time now 2017-Dec-13 13:15 UTC.
Position N 29°22' W 094°48'.
Warning: this ship's position is 14 days out of date.

Length 128 m; draft 5.8 m.

Type: Tanker. MMSI: 310709000.

Date/timePositionNaut miles runAvg speedWind from/ knotsBaromVisibWave heightAir tempDewpointWater temp
2017-Nov-28 17:42N 29°22' W 094°48'312.2
2017-Nov-28 17:30N 29°25' W 094°49'612.5
2017-Nov-28 17:00N 29°30' W 094°52'612.4
2017-Nov-28 16:30N 29°35' W 094°56'612.0
2017-Nov-28 16:00N 29°41' W 094°59'7 7.2
2017-Nov-28 14:59N 29°45' W 095°06'3 6.7
2017-Nov-28 14:30N 29°44' W 095°09'3 5.5
2017-Nov-28 14:00N 29°44' W 095°13'1 0.9
2017-Nov-28 12:32N 29°43' W 095°14'0 0.0
2017-Nov-28 12:14N 29°43' W 095°14'0 0.0
2017-Nov-28 11:56N 29°43' W 095°14'0 0.0
2017-Nov-28 11:20N 29°43' W 095°14'0 0.0
2017-Nov-28 10:41N 29°43' W 095°14'0 0.0
2017-Nov-28 10:20N 29°43' W 095°14'0 0.0
2017-Nov-28 09:47N 29°43' W 095°14'0 0.0
2017-Nov-28 09:29N 29°43' W 095°14'0 0.0
2017-Nov-28 08:56N 29°43' W 095°14'0 0.0
2017-Nov-28 08:26N 29°43' W 095°14'0 0.0
2017-Nov-28 07:53N 29°43' W 095°14'0 0.0
2017-Nov-28 07:23N 29°43' W 095°14'0 0.0
2017-Nov-28 06:59N 29°43' W 095°14'0 0.0
2017-Nov-28 06:14N 29°43' W 095°14'0 0.0
2017-Nov-28 05:44N 29°43' W 095°14'0 0.0
2017-Nov-28 05:29N 29°43' W 095°14'0 0.0
2017-Nov-28 04:29N 29°43' W 095°14'0 0.0
2017-Nov-28 03:50N 29°43' W 095°14'0 0.0
2017-Nov-28 03:26N 29°43' W 095°14'0 0.0
2017-Nov-28 02:47N 29°43' W 095°14'0 0.0
2017-Nov-28 02:26N 29°43' W 095°14'0 0.0
2017-Nov-28 01:53N 29°43' W 095°14'0 0.0
2017-Nov-28 00:17N 29°43' W 095°14'0 0.0
2017-Nov-27 17:38N 29°43' W 095°14'0 0.0
2017-Nov-27 14:20N 29°43' W 095°14'0 0.0
2017-Nov-27 13:23N 29°43' W 095°14'0 0.0
2017-Nov-27 12:59N 29°43' W 095°14'0 0.0
2017-Nov-27 12:26N 29°43' W 095°14'0 0.0
2017-Nov-27 11:56N 29°43' W 095°14'0 0.0
2017-Nov-27 11:29N 29°43' W 095°14'0 0.0
2017-Nov-27 10:59N 29°43' W 095°14'0 0.0
2017-Nov-27 10:29N 29°43' W 095°14'0 0.0
2017-Nov-27 09:59N 29°43' W 095°14'0 0.0
2017-Nov-27 09:29N 29°43' W 095°14'0 0.0
2017-Nov-27 08:53N 29°43' W 095°14'0 0.0
2017-Nov-27 08:23N 29°43' W 095°14'0 0.0
2017-Nov-27 07:59N 29°43' W 095°14'0 0.0
2017-Nov-27 07:29N 29°43' W 095°14'0 0.0
2017-Nov-27 06:50N 29°43' W 095°14'0 0.0
2017-Nov-27 06:29N 29°43' W 095°14'0 0.0
2017-Nov-27 05:53N 29°43' W 095°14'0 0.0
2017-Nov-27 05:29N 29°43' W 095°14'0 0.0
2017-Nov-27 04:59N 29°43' W 095°14'0 0.0
2017-Nov-27 04:26N 29°43' W 095°14'0 0.0
2017-Nov-27 04:00N 29°43' W 095°14'0 0.0
2017-Nov-27 03:30N 29°43' W 095°14'0 0.0
2017-Nov-27 03:00N 29°43' W 095°14'1 1.5
2017-Nov-27 02:30N 29°43' W 095°13'3 5.9
2017-Nov-27 02:00N 29°45' W 095°10'3 6.4
2017-Nov-27 01:29N 29°45' W 095°06'2 5.1
2017-Nov-27 01:00N 29°44' W 095°04'4 8.1
2017-Nov-27 00:30N 29°42' W 094°60'611.4
2017-Nov-27 00:00N 29°37' W 094°57'612.7
2017-Nov-26 23:30N 29°31' W 094°53'612.5
2017-Nov-26 23:00N 29°26' W 094°50'  
Track history (hours):
 
Tides and Currents Weather Stations Pressure Air Temp Water Temp Dewpoint Dewpoint Depression Visibility Wind Speed Wind Dir Waves Ship Positions

Sichem Montreal

Last reported at 2017-Nov-28 17:42 UTC. Time now 2017-Dec-13 13:15 UTC.
Position N 29°22' W 094°48'.
Warning: this ship's position is 14 days out of date.

Length 128 m; draft 5.8 m.

Type: Tanker. MMSI: 310709000.

Date/timePositionNaut miles runAvg speedWind from/ knotsBaromVisibWave heightAir tempDewpointWater temp
2017-Nov-28 17:42N 29°22' W 094°48'312.2
2017-Nov-28 17:30N 29°25' W 094°49'612.5
2017-Nov-28 17:00N 29°30' W 094°52'612.4
2017-Nov-28 16:30N 29°35' W 094°56'612.0
2017-Nov-28 16:00N 29°41' W 094°59'7 7.2
2017-Nov-28 14:59N 29°45' W 095°06'3 6.7
2017-Nov-28 14:30N 29°44' W 095°09'3 5.5
2017-Nov-28 14:00N 29°44' W 095°13'1 0.9
2017-Nov-28 12:32N 29°43' W 095°14'0 0.0
2017-Nov-28 12:14N 29°43' W 095°14'0 0.0
2017-Nov-28 11:56N 29°43' W 095°14'0 0.0
2017-Nov-28 11:20N 29°43' W 095°14'0 0.0
2017-Nov-28 10:41N 29°43' W 095°14'0 0.0
2017-Nov-28 10:20N 29°43' W 095°14'0 0.0
2017-Nov-28 09:47N 29°43' W 095°14'0 0.0
2017-Nov-28 09:29N 29°43' W 095°14'0 0.0
2017-Nov-28 08:56N 29°43' W 095°14'0 0.0
2017-Nov-28 08:26N 29°43' W 095°14'0 0.0
2017-Nov-28 07:53N 29°43' W 095°14'0 0.0
2017-Nov-28 07:23N 29°43' W 095°14'0 0.0
2017-Nov-28 06:59N 29°43' W 095°14'0 0.0
2017-Nov-28 06:14N 29°43' W 095°14'0 0.0
2017-Nov-28 05:44N 29°43' W 095°14'0 0.0
2017-Nov-28 05:29N 29°43' W 095°14'0 0.0
2017-Nov-28 04:29N 29°43' W 095°14'0 0.0
2017-Nov-28 03:50N 29°43' W 095°14'0 0.0
2017-Nov-28 03:26N 29°43' W 095°14'0 0.0
2017-Nov-28 02:47N 29°43' W 095°14'0 0.0
2017-Nov-28 02:26N 29°43' W 095°14'0 0.0
2017-Nov-28 01:53N 29°43' W 095°14'0 0.0
2017-Nov-28 00:17N 29°43' W 095°14'0 0.0
2017-Nov-27 17:38N 29°43' W 095°14'0 0.0
2017-Nov-27 14:20N 29°43' W 095°14'0 0.0
2017-Nov-27 13:23N 29°43' W 095°14'0 0.0
2017-Nov-27 12:59N 29°43' W 095°14'0 0.0
2017-Nov-27 12:26N 29°43' W 095°14'0 0.0
2017-Nov-27 11:56N 29°43' W 095°14'0 0.0
2017-Nov-27 11:29N 29°43' W 095°14'0 0.0
2017-Nov-27 10:59N 29°43' W 095°14'0 0.0
2017-Nov-27 10:29N 29°43' W 095°14'0 0.0
2017-Nov-27 09:59N 29°43' W 095°14'0 0.0
2017-Nov-27 09:29N 29°43' W 095°14'0 0.0
2017-Nov-27 08:53N 29°43' W 095°14'0 0.0
2017-Nov-27 08:23N 29°43' W 095°14'0 0.0
2017-Nov-27 07:59N 29°43' W 095°14'0 0.0
2017-Nov-27 07:29N 29°43' W 095°14'0 0.0
2017-Nov-27 06:50N 29°43' W 095°14'0 0.0
2017-Nov-27 06:29N 29°43' W 095°14'0 0.0
2017-Nov-27 05:53N 29°43' W 095°14'0 0.0
2017-Nov-27 05:29N 29°43' W 095°14'0 0.0
2017-Nov-27 04:59N 29°43' W 095°14'0 0.0
2017-Nov-27 04:26N 29°43' W 095°14'0 0.0
2017-Nov-27 04:00N 29°43' W 095°14'0 0.0
2017-Nov-27 03:30N 29°43' W 095°14'0 0.0
2017-Nov-27 03:00N 29°43' W 095°14'1 1.5
2017-Nov-27 02:30N 29°43' W 095°13'3 5.9
2017-Nov-27 02:00N 29°45' W 095°10'3 6.4
2017-Nov-27 01:29N 29°45' W 095°06'2 5.1
2017-Nov-27 01:00N 29°44' W 095°04'4 8.1
2017-Nov-27 00:30N 29°42' W 094°60'611.4
2017-Nov-27 00:00N 29°37' W 094°57'612.7
2017-Nov-26 23:30N 29°31' W 094°53'612.5
2017-Nov-26 23:00N 29°26' W 094°50'  

Dump ship's entire track history